Time;durP1;ratioP1;P1;durP2;ratioP2;P2;SDS_P1;SDS_P2;PMS_P1;PMS_P2;Temp;Humidity;BMP_temperature;BMP_pressure;BME280_temperature;BME280_humidity;BME280_pressure;Samples;Min_cycle;Max_cycle;Signal;HPM_P1;HPM_P2
2023/10/19 00:00:55;;;;;;;1999.90;999.90;;;;;;;16.37;81.32;99221.84;10546821;28;20479;-63
2023/10/19 00:05:58;;;;;;;1999.90;999.90;;;;;;;16.08;84.58;99208.13;10512363;28;20079;-64
2023/10/19 00:11:08;;;;;;;1999.90;999.90;;;;;;;16.37;83.28;99198.91;10546459;28;20055;-63
2023/10/19 00:16:17;;;;;;;1999.90;999.90;;;;;;;17.01;79.85;99209.63;10546380;28;20071;-63
2023/10/19 00:21:21;;;;;;;1999.90;999.90;;;;;;;16.30;82.11;99203.19;10545493;28;20484;-63
2023/10/19 00:26:26;;;;;;;1999.90;999.90;;;;;;;17.16;81.12;99201.00;10527525;28;20531;-64
2023/10/19 00:31:30;;;;;;;1999.90;999.90;;;;;;;16.99;80.80;99201.03;10512177;28;20087;-63
2023/10/19 00:36:33;;;;;;;1999.90;999.90;;;;;;;16.84;81.32;99186.81;10544627;28;20419;-63
2023/10/19 00:41:37;;;;;;;1999.90;999.90;;;;;;;17.05;80.97;99189.78;10544744;28;20056;-63
2023/10/19 00:46:43;;;;;;;1999.90;999.90;;;;;;;16.95;83.03;99185.69;10545013;28;20048;-63
2023/10/19 00:52:11;;;;;;;1999.90;999.90;;;;;;;17.20;80.91;99197.03;10544965;28;20105;-63
2023/10/19 00:57:14;;;;;;;1999.90;999.90;;;;;;;16.82;83.23;99207.31;10529469;28;20430;-64
2023/10/19 01:02:17;;;;;;;1999.90;999.90;;;;;;;17.39;78.72;99190.50;10525965;28;20052;-63
2023/10/19 01:07:27;;;;;;;1999.90;999.90;;;;;;;17.05;80.02;99189.78;10525860;28;20044;-63
2023/10/19 01:17:43;;;;;;;1999.90;999.90;;;;;;;17.52;77.60;99168.81;10526362;28;20054;-63
2023/10/19 01:22:53;;;;;;;1999.90;999.90;;;;;;;18.04;76.74;99170.00;10544090;28;20055;-63
2023/10/19 01:27:57;;;;;;;1999.90;999.90;;;;;;;17.39;79.02;99172.00;10525394;28;20422;-63
2023/10/19 01:33:00;;;;;;;1999.90;999.90;;;;;;;17.20;78.13;99173.22;10543221;28;20044;-64
2023/10/19 01:38:03;;;;;;;1999.90;999.90;;;;;;;17.25;81.47;99177.00;10542329;28;20056;-63
2023/10/19 01:43:06;;;;;;;1999.90;999.90;;;;;;;17.73;77.68;99165.53;10542205;28;20054;-64
2023/10/19 01:48:08;;;;;;;1999.90;999.90;;;;;;;17.22;81.38;99169.41;10542611;28;20060;-64
2023/10/19 01:53:15;;;;;;;1999.90;999.90;;;;;;;17.55;79.46;99165.78;10540899;28;20579;-64
2023/10/19 01:58:17;;;;;;;1999.90;999.90;;;;;;;17.78;79.76;99158.72;10542263;28;20048;-63
2023/10/19 02:03:21;;;;;;;1999.90;999.90;;;;;;;17.87;77.10;99146.31;10524453;28;20048;-64
2023/10/19 02:08:26;;;;;;;1999.90;999.90;;;;;;;18.33;76.69;99153.41;10542384;28;20055;-63
2023/10/19 02:13:29;;;;;;;1999.90;999.90;;;;;;;18.05;77.29;99147.84;10523935;28;20126;-64
2023/10/19 02:18:34;;;;;;;1999.90;999.90;;;;;;;17.74;78.62;99140.72;10540848;28;20493;-63
2023/10/19 02:23:36;;;;;;;1999.90;999.90;;;;;;;18.48;75.93;99137.56;10540892;28;20513;-64
2023/10/19 02:28:39;;;;;;;1999.90;999.90;;;;;;;17.82;79.64;99133.56;10540488;28;20400;-63
2023/10/19 02:39:15;;;;;;;1999.90;999.90;;;;;;;18.04;78.50;99125.84;10450494;28;20047;-64
2023/10/19 02:49:22;;;;;;;1999.90;999.90;;;;;;;18.75;75.69;99120.22;10456608;28;20489;-63
2023/10/19 02:54:25;;;;;;;1999.90;999.90;;;;;;;19.02;75.73;99120.63;10457105;28;20128;-64
2023/10/19 02:59:28;;;;;;;1999.90;999.90;;;;;;;18.52;76.95;99128.22;10456343;28;20486;-64
2023/10/19 03:04:31;;;;;;;1999.90;999.90;;;;;;;19.05;77.28;99134.34;10456007;28;20475;-64
2023/10/19 03:09:36;;;;;;;1999.90;999.90;;;;;;;18.54;79.68;99127.06;10456607;28;20080;-64
2023/10/19 03:14:41;;;;;;;1999.90;999.90;;;;;;;19.31;76.63;99127.72;10456733;28;20041;-64
2023/10/19 03:19:43;;;;;;;1999.90;999.90;;;;;;;19.67;75.21;99121.63;10456495;28;20549;-64
2023/10/19 03:24:46;;;;;;;1999.90;999.90;;;;;;;19.86;72.52;99115.69;10456477;28;20048;-64
2023/10/19 03:29:55;;;;;;;1999.90;999.90;;;;;;;20.19;71.12;99119.66;10455192;28;20133;-64
2023/10/19 03:34:59;;;;;;;1999.90;999.90;;;;;;;20.15;70.16;99115.78;10463080;28;20048;-64
2023/10/19 03:40:07;;;;;;;1999.90;999.90;;;;;;;20.01;71.30;99118.31;10538854;28;20113;-64
2023/10/19 03:45:13;;;;;;;1999.90;999.90;;;;;;;19.91;71.75;99103.72;10539314;28;20044;-64
2023/10/19 03:50:20;;;;;;;1999.90;999.90;;;;;;;19.27;75.15;99102.59;10521999;28;20089;-64
2023/10/19 03:55:23;;;;;;;1999.90;999.90;;;;;;;19.66;74.12;99099.53;10539214;28;20055;-64
2023/10/19 04:00:28;;;;;;;1999.90;999.90;;;;;;;19.65;72.38;99084.63;10538503;28;20082;-64
2023/10/19 04:05:31;;;;;;;1999.90;999.90;;;;;;;19.61;74.44;99080.69;10538886;28;20044;-64
2023/10/19 04:15:36;;;;;;;1999.90;999.90;;;;;;;19.31;76.12;99086.09;10542996;28;20405;-64
2023/10/19 04:25:47;;;;;;;1999.90;999.90;;;;;;;19.20;75.00;99083.94;10528424;28;20044;-64
2023/10/19 04:30:49;;;;;;;1999.90;999.90;;;;;;;19.64;74.29;99077.66;10545706;28;20413;-64
2023/10/19 04:35:55;;;;;;;1999.90;999.90;;;;;;;19.73;73.81;99067.75;10544729;28;20390;-64
2023/10/19 04:41:11;;;;;;;1999.90;999.90;;;;;;;19.49;75.10;99079.56;10545434;28;20059;-64
2023/10/19 04:46:13;;;;;;;1999.90;999.90;;;;;;;19.78;73.91;99081.31;10527391;28;20105;-64
2023/10/19 04:51:17;;;;;;;1999.90;999.90;;;;;;;19.38;75.09;99078.19;10544318;28;20451;-64
2023/10/19 04:56:19;;;;;;;1999.90;999.90;;;;;;;19.68;72.74;99076.28;10544724;28;20044;-64
2023/10/19 05:01:21;;;;;;;1999.90;999.90;;;;;;;19.82;71.64;99087.06;10543892;28;20044;-64
2023/10/19 05:06:24;;;;;;;1999.90;999.90;;;;;;;19.49;73.09;99091.00;10526008;28;20071;-64
2023/10/19 05:11:26;;;;;;;1999.90;999.90;;;;;;;19.48;71.12;99099.97;10526238;28;20048;-64
2023/10/19 05:16:29;;;;;;;1999.90;999.90;;;;;;;19.58;71.47;99093.53;10543326;28;20075;-64
2023/10/19 05:21:33;;;;;;;1999.90;999.90;;;;;;;19.88;70.40;99096.13;10525952;28;20055;-64
2023/10/19 05:26:36;;;;;;;1999.90;999.90;;;;;;;19.38;71.19;99096.78;10543461;28;20040;-64
2023/10/19 05:31:38;;;;;;;1999.90;999.90;;;;;;;19.15;73.02;99096.94;10542686;28;20052;-64
2023/10/19 05:36:43;;;;;;;1999.90;999.90;;;;;;;19.31;72.00;99090.56;10542607;28;20059;-64
2023/10/19 05:41:45;;;;;;;1999.90;999.90;;;;;;;18.66;76.40;99102.75;10543545;28;20082;-64
2023/10/19 05:46:48;;;;;;;1999.90;999.90;;;;;;;19.28;72.41;99093.59;10542690;28;20059;-64
2023/10/19 05:51:51;;;;;;;1999.90;999.90;;;;;;;19.25;73.47;99108.06;10524659;28;20052;-64
2023/10/19 05:56:53;;;;;;;1999.90;999.90;;;;;;;18.77;75.53;99107.59;10523821;28;20054;-64
2023/10/19 06:01:56;;;;;;;1999.90;999.90;;;;;;;19.40;73.75;99104.56;10541566;28;20556;-64
2023/10/19 06:06:58;;;;;;;1999.90;999.90;;;;;;;19.26;73.68;99104.41;10541913;28;20085;-64
2023/10/19 06:12:02;;;;;;;1999.90;999.90;;;;;;;18.73;75.46;99123.06;10541109;28;20485;-64
2023/10/19 06:17:04;;;;;;;1999.90;999.90;;;;;;;18.82;77.61;99126.44;10541595;28;20044;-64
2023/10/19 06:22:08;;;;;;;1999.90;999.90;;;;;;;19.21;77.65;99129.84;10540747;28;20415;-64
2023/10/19 06:27:11;;;;;;;1999.90;999.90;;;;;;;19.71;76.57;99122.88;10540527;28;20437;-64
2023/10/19 06:32:13;;;;;;;1999.90;999.90;;;;;;;18.98;81.37;99122.84;10540387;28;20485;-64
2023/10/19 06:37:15;;;;;;;1999.90;999.90;;;;;;;19.65;78.50;99135.06;10539675;28;20047;-64
2023/10/19 06:42:18;;;;;;;1999.90;999.90;;;;;;;19.60;76.85;99139.28;10540110;28;20066;-64
2023/10/19 06:47:20;;;;;;;1999.90;999.90;;;;;;;19.41;80.35;99140.72;10539868;28;20396;-64
2023/10/19 06:52:23;;;;;;;1999.90;999.90;;;;;;;20.30;75.21;99137.75;10442292;22;20052;-66
2023/10/19 06:57:25;;;;;;;1999.90;999.90;;;;;;;20.00;75.71;99139.75;10369659;28;20046;-66
2023/10/19 07:02:27;;;;;;;1999.90;999.90;;;;;;;20.06;76.00;99139.00;10351757;28;20050;-66
2023/10/19 07:07:30;;;;;;;1999.90;999.90;;;;;;;20.52;75.87;99141.19;10368815;28;20125;-66
2023/10/19 07:12:32;;;;;;;1999.90;999.90;;;;;;;20.26;75.63;99151.63;10368739;28;20076;-66
2023/10/19 07:17:37;;;;;;;1999.90;999.90;;;;;;;20.13;77.50;99152.34;10368539;28;20050;-66
2023/10/19 07:22:42;;;;;;;1999.90;999.90;;;;;;;20.73;73.16;99158.19;10351042;28;20058;-66
2023/10/19 07:27:44;;;;;;;1999.90;999.90;;;;;;;20.76;75.08;99160.41;10368224;28;20046;-66
2023/10/19 07:32:51;;;;;;;1999.90;999.90;;;;;;;20.58;77.16;99166.22;10350868;28;20050;-66
2023/10/19 07:37:54;;;;;;;1999.90;999.90;;;;;;;20.65;77.00;99182.25;10367485;28;20046;-66
2023/10/19 07:42:57;;;;;;;1999.90;999.90;;;;;;;21.01;76.02;99178.59;10368009;28;20050;-66
2023/10/19 07:48:06;;;;;;;1999.90;999.90;;;;;;;21.09;74.90;99187.25;10368040;28;20522;-66
2023/10/19 07:53:09;;;;;;;1999.90;999.90;;;;;;;20.50;77.66;99174.31;10357124;28;20062;-66
2023/10/19 07:58:12;;;;;;;1999.90;999.90;;;;;;;20.28;78.15;99177.00;10374711;28;20124;-66
2023/10/19 08:03:16;;;;;;;1999.90;999.90;;;;;;;20.60;75.71;99175.63;10373987;28;20129;-66
2023/10/19 08:08:18;;;;;;;1999.90;999.90;;;;;;;21.22;75.68;99173.19;10374330;28;20053;-66
2023/10/19 08:13:21;;;;;;;1999.90;999.90;;;;;;;21.56;73.92;99168.06;10374243;28;20049;-66
2023/10/19 08:18:24;;;;;;;1999.90;999.90;;;;;;;21.20;75.77;99171.75;10373418;28;20475;-66
2023/10/19 08:23:27;;;;;;;1999.90;999.90;;;;;;;21.35;75.38;99172.47;10373854;28;20060;-66
2023/10/19 08:28:30;;;;;;;1999.90;999.90;;;;;;;21.34;75.26;99171.63;10356523;28;20054;-66
2023/10/19 08:33:33;;;;;;;1999.90;999.90;;;;;;;21.34;74.83;99166.28;10356371;28;20057;-66
2023/10/19 08:38:36;;;;;;;1999.90;999.90;;;;;;;21.89;74.19;99152.19;10356284;28;20050;-66
2023/10/19 08:43:39;;;;;;;1999.90;999.90;;;;;;;21.42;74.48;99157.31;10372677;28;20493;-66
2023/10/19 08:48:42;;;;;;;1999.90;999.90;;;;;;;22.20;73.44;99151.59;10372524;28;20058;-66
2023/10/19 08:53:44;;;;;;;1999.90;999.90;;;;;;;21.96;74.01;99146.88;10372210;28;20531;-66
2023/10/19 08:58:47;;;;;;;1999.90;999.90;;;;;;;22.14;73.41;99135.59;10355086;28;20049;-66
2023/10/19 09:03:50;;;;;;;1999.90;999.90;;;;;;;21.87;72.86;99139.06;10372612;28;20115;-66
2023/10/19 09:08:52;;;;;;;1999.90;999.90;;;;;;;22.30;72.32;99131.75;10372534;28;20098;-66
2023/10/19 09:13:57;;;;;;;1999.90;999.90;;;;;;;21.91;73.45;99131.47;10372367;28;20046;-66
2023/10/19 09:18:59;;;;;;;1999.90;999.90;;;;;;;21.77;74.94;99148.44;10372245;28;20081;-66
2023/10/19 09:24:02;;;;;;;1999.90;999.90;;;;;;;22.97;77.04;99135.97;10371342;28;20509;-66
2023/10/19 09:29:05;;;;;;;1999.90;999.90;;;;;;;23.90;75.49;99133.97;10338383;28;20046;-67
2023/10/19 09:34:11;;;;;;;1999.90;999.90;;;;;;;24.12;69.94;99137.09;10354225;28;20050;-67
2023/10/19 09:39:13;;;;;;;1999.90;999.90;;;;;;;24.27;73.24;99134.13;10354178;28;20109;-67
2023/10/19 09:44:18;;;;;;;1999.90;999.90;;;;;;;23.70;69.74;99121.53;10353397;28;20049;-67
2023/10/19 09:49:21;;;;;;;1999.90;999.90;;;;;;;25.06;69.72;99121.03;10353295;28;20066;-67
2023/10/19 09:54:33;;;;;;;1999.90;999.90;;;;;;;25.12;71.49;99114.78;10353697;28;20072;-69
2023/10/19 09:59:38;;;;;;;1999.90;999.90;;;;;;;25.12;68.15;99122.00;10353207;28;20511;-70
2023/10/19 10:04:42;;;;;;;1999.90;999.90;;;;;;;26.04;68.26;99121.84;10353407;28;20050;-70
2023/10/19 10:09:45;;;;;;;1999.90;999.90;;;;;;;26.40;63.77;99113.84;10370513;28;20053;-70
2023/10/19 10:15:16;;;;;;;1999.90;999.90;;;;;;;27.36;65.75;99116.22;10351819;28;20536;-70
2023/10/19 10:20:18;;;;;;;1999.90;999.90;;;;;;;26.20;63.59;99108.81;10351885;28;20060;-70
2023/10/19 10:25:27;;;;;;;1999.90;999.90;;;;;;;25.40;66.09;99119.63;10370051;28;20080;-70
2023/10/19 10:30:31;;;;;;;1999.90;999.90;;;;;;;24.60;66.43;99115.13;10351953;28;20056;-70
2023/10/19 10:35:36;;;;;;;1999.90;999.90;;;;;;;24.56;68.17;99118.47;10369207;28;20505;-70
2023/10/19 10:40:45;;;;;;;1999.90;999.90;;;;;;;24.80;68.53;99098.06;10369561;28;20050;-70
2023/10/19 10:45:48;;;;;;;1999.90;999.90;;;;;;;24.19;68.42;99086.25;10352163;28;20053;-70
2023/10/19 10:50:50;;;;;;;1999.90;999.90;;;;;;;24.45;67.55;99080.66;10351964;28;20064;-69
2023/10/19 10:55:53;;;;;;;1999.90;999.90;;;;;;;24.34;68.52;99073.38;10368786;28;20402;-69
2023/10/19 11:00:57;;;;;;;1999.90;999.90;;;;;;;24.94;67.10;99071.97;10368943;28;20056;-69
2023/10/19 11:06:09;;;;;;;1999.90;999.90;;;;;;;25.02;66.41;99072.47;10368865;28;20111;-68
2023/10/19 11:11:12;;;;;;;1999.90;999.90;;;;;;;26.73;63.52;99074.88;10351480;28;20054;-67
2023/10/19 11:16:23;;;;;;;1999.90;999.90;;;;;;;28.11;58.08;99060.53;10368654;28;20099;-67
2023/10/19 11:21:25;;;;;;;1999.90;999.90;;;;;;;26.71;58.76;99063.56;10335315;28;20555;-68
2023/10/19 11:26:29;;;;;;;1999.90;999.90;;;;;;;26.30;58.95;99060.78;10375737;28;20061;-67
2023/10/19 11:31:37;;;;;;;1999.90;999.90;;;;;;;28.13;58.04;99063.81;10374971;28;20115;-67
2023/10/19 11:36:40;;;;;;;1999.90;999.90;;;;;;;27.20;58.60;99055.97;10375535;28;20088;-68
2023/10/19 11:41:42;;;;;;;1999.90;999.90;;;;;;;25.75;60.26;99062.66;10375290;28;20134;-67
2023/10/19 11:46:45;;;;;;;1999.90;999.90;;;;;;;25.38;62.66;99054.72;10375040;28;20050;-67
2023/10/19 11:51:47;;;;;;;1999.90;999.90;;;;;;;27.54;59.04;99046.16;10374463;28;20054;-68
2023/10/19 11:56:50;;;;;;;1999.90;999.90;;;;;;;27.63;54.78;99043.06;10374829;28;20125;-68
2023/10/19 12:01:54;;;;;;;1999.90;999.90;;;;;;;26.13;59.40;99041.88;10357330;28;20084;-67
2023/10/19 12:06:57;;;;;;;1999.90;999.90;;;;;;;25.58;61.85;99042.91;10357473;28;20095;-67
2023/10/19 12:11:59;;;;;;;1999.90;999.90;;;;;;;26.63;57.97;99022.63;10374316;28;20052;-68
2023/10/19 12:17:02;;;;;;;1999.90;999.90;;;;;;;25.88;61.13;99013.38;10373514;28;20479;-68
2023/10/19 12:22:05;;;;;;;1999.90;999.90;;;;;;;25.53;61.26;99019.47;10373970;28;20129;-67
2023/10/19 12:27:08;;;;;;;1999.90;999.90;;;;;;;25.51;62.68;99023.47;10373805;28;20056;-68
2023/10/19 12:32:12;;;;;;;1999.90;999.90;;;;;;;25.06;61.85;99024.66;10340471;28;20053;-67
2023/10/19 12:37:17;;;;;;;1999.90;999.90;;;;;;;24.45;64.45;99027.19;10372239;28;20052;-67
2023/10/19 12:42:22;;;;;;;1999.90;999.90;;;;;;;24.18;66.22;99023.16;10355761;28;20057;-67
2023/10/19 12:47:25;;;;;;;1999.90;999.90;;;;;;;24.18;64.77;99023.16;10373475;28;20042;-67
2023/10/19 12:52:27;;;;;;;1999.90;999.90;;;;;;;24.57;64.53;99015.78;10354270;28;20064;-67
2023/10/19 12:57:32;;;;;;;1999.90;999.90;;;;;;;24.44;64.66;99024.72;10372904;28;20129;-67
2023/10/19 13:02:37;;;;;;;1999.90;999.90;;;;;;;24.35;66.97;99013.50;10355383;28;20418;-67
2023/10/19 13:07:39;;;;;;;1999.90;999.90;;;;;;;24.07;67.63;99005.94;10354684;28;20046;-67
2023/10/19 13:12:42;;;;;;;1999.90;999.90;;;;;;;24.02;68.00;98998.59;10372398;28;20054;-67
2023/10/19 13:17:46;;;;;;;1999.90;999.90;;;;;;;23.24;69.86;98989.09;10354486;28;20045;-67
2023/10/19 13:22:49;;;;;;;1999.90;999.90;;;;;;;23.30;70.87;98987.41;10338781;28;20053;-67
2023/10/19 13:27:51;;;;;;;1999.90;999.90;;;;;;;23.99;68.54;98987.53;10371865;28;20049;-67
2023/10/19 13:32:54;;;;;;;1999.90;999.90;;;;;;;24.05;69.18;98982.13;10353796;28;20057;-67
2023/10/19 13:37:56;;;;;;;1999.90;999.90;;;;;;;24.00;69.42;98978.47;10370993;28;20402;-67
2023/10/19 13:42:59;;;;;;;1999.90;999.90;;;;;;;24.15;69.01;98978.13;10371496;28;20064;-67
2023/10/19 13:48:06;;;;;;;1999.90;999.90;;;;;;;23.56;72.45;98973.88;10369337;28;20480;-67
2023/10/19 13:53:09;;;;;;;1999.90;999.90;;;;;;;23.69;73.61;98974.81;10370542;28;20058;-67
2023/10/19 13:58:12;;;;;;;1999.90;999.90;;;;;;;24.27;70.38;98965.66;10371018;28;20049;-67
2023/10/19 14:03:15;;;;;;;1999.90;999.90;;;;;;;23.20;71.76;98961.19;10370092;28;20490;-67
2023/10/19 14:08:20;;;;;;;1999.90;999.90;;;;;;;23.71;72.49;98970.88;10353345;28;20133;-67
2023/10/19 14:13:22;;;;;;;1999.90;999.90;;;;;;;23.50;70.15;98964.06;10353281;28;20057;-67
2023/10/19 14:18:25;;;;;;;1999.90;999.90;;;;;;;23.64;70.59;98962.09;10353185;28;20050;-67
2023/10/19 14:23:28;;;;;;;1999.90;999.90;;;;;;;22.95;72.87;98953.09;10370259;28;20056;-67
2023/10/19 14:28:31;;;;;;;1999.90;999.90;;;;;;;23.44;70.26;98953.44;10352544;28;20049;-67
2023/10/19 14:33:35;;;;;;;1999.90;999.90;;;;;;;23.43;69.26;98947.25;10369912;28;20053;-67
2023/10/19 14:38:39;;;;;;;1999.90;999.90;;;;;;;23.34;70.52;98940.56;10369775;28;20077;-67
2023/10/19 14:43:42;;;;;;;1999.90;999.90;;;;;;;23.16;72.36;98922.59;10352464;28;20054;-67
2023/10/19 14:48:45;;;;;;;1999.90;999.90;;;;;;;23.68;69.29;98925.88;10369383;28;20046;-67
2023/10/19 14:53:47;;;;;;;1999.90;999.90;;;;;;;22.68;70.70;98915.03;10368596;28;20064;-67
2023/10/19 14:58:51;;;;;;;1999.90;999.90;;;;;;;23.29;69.93;98913.69;10368844;28;20053;-67
2023/10/19 15:03:57;;;;;;;1999.90;999.90;;;;;;;22.35;74.05;98906.16;10368455;28;20510;-67
2023/10/19 15:09:00;;;;;;;1999.90;999.90;;;;;;;22.49;74.34;98898.13;10368836;28;20046;-67
2023/10/19 15:14:03;;;;;;;1999.90;999.90;;;;;;;23.07;71.09;98876.69;10368128;28;20046;-67
2023/10/19 15:19:06;;;;;;;1999.90;999.90;;;;;;;23.00;72.16;98871.34;10368173;28;20056;-68
2023/10/19 15:24:09;;;;;;;1999.90;999.90;;;;;;;23.04;72.02;98862.94;10368504;28;20057;-68
2023/10/19 15:29:11;;;;;;;1999.90;999.90;;;;;;;23.08;70.76;98861.47;10368297;28;20054;-67
2023/10/19 15:34:15;;;;;;;1999.90;999.90;;;;;;;23.10;73.35;98852.22;10368208;28;20046;-68
2023/10/19 15:39:18;;;;;;;1999.90;999.90;;;;;;;22.66;76.17;98842.44;10368129;28;20053;-67
2023/10/19 15:44:20;;;;;;;1999.90;999.90;;;;;;;22.74;76.44;98856.31;10367977;28;20057;-67
2023/10/19 15:49:22;;;;;;;1999.90;999.90;;;;;;;22.94;74.11;98861.53;10349882;28;20533;-67
2023/10/19 15:54:27;;;;;;;1999.90;999.90;;;;;;;22.58;74.69;98862.19;10367008;28;20058;-67
2023/10/19 15:59:29;;;;;;;1999.90;999.90;;;;;;;22.42;74.96;98868.81;10367627;28;20046;-67
2023/10/19 16:04:32;;;;;;;1999.90;999.90;;;;;;;22.32;76.90;98855.94;10366814;28;20141;-67
2023/10/19 16:09:34;;;;;;;1999.90;999.90;;;;;;;22.64;73.47;98847.97;10351616;28;20422;-67
2023/10/19 16:14:38;;;;;;;1999.90;999.90;;;;;;;22.53;72.39;98836.16;10356962;28;20049;-67
2023/10/19 16:19:40;;;;;;;1999.90;999.90;;;;;;;22.56;71.58;98833.06;10373535;28;20054;-67
2023/10/19 16:24:43;;;;;;;1999.90;999.90;;;;;;;22.25;72.25;98837.28;10356586;28;20133;-67
2023/10/19 16:29:46;;;;;;;1999.90;999.90;;;;;;;21.92;73.63;98834.72;10373838;28;20049;-68
2023/10/19 16:34:48;;;;;;;1999.90;999.90;;;;;;;22.23;70.84;98839.34;10373666;28;20129;-67
2023/10/19 16:39:52;;;;;;;1999.90;999.90;;;;;;;21.94;71.75;98826.53;10355579;28;20081;-67
2023/10/19 16:44:55;;;;;;;1999.90;999.90;;;;;;;21.82;71.04;98824.53;10373210;28;20054;-67
2023/10/19 16:49:57;;;;;;;1999.90;999.90;;;;;;;21.69;72.10;98837.88;10354947;28;20050;-67
2023/10/19 16:54:59;;;;;;;1999.90;999.90;;;;;;;21.54;71.86;98848.75;10372421;28;20046;-68
2023/10/19 17:00:02;;;;;;;1999.90;999.90;;;;;;;21.60;72.80;98857.75;10354956;28;20062;-67
2023/10/19 17:05:06;;;;;;;1999.90;999.90;;;;;;;21.76;73.41;98846.66;10355230;28;20056;-67
2023/10/19 17:10:09;;;;;;;1999.90;999.90;;;;;;;21.82;73.24;98845.84;10371868;28;20513;-67
2023/10/19 17:15:13;;;;;;;1999.90;999.90;;;;;;;21.78;72.81;98846.47;10372587;28;20129;-67
2023/10/19 17:20:16;;;;;;;1999.90;999.90;;;;;;;21.93;72.96;98854.22;10371250;28;20510;-67
2023/10/19 17:25:19;;;;;;;1999.90;999.90;;;;;;;21.80;73.06;98853.19;10371959;28;20085;-67
2023/10/19 17:30:21;;;;;;;1999.90;999.90;;;;;;;21.80;71.94;98855.06;10354115;28;20582;-67
2023/10/19 17:35:24;;;;;;;1999.90;999.90;;;;;;;21.86;71.66;98839.06;10354377;28;20050;-67
2023/10/19 17:40:26;;;;;;;1999.90;999.90;;;;;;;21.75;72.49;98838.88;10371586;28;20099;-67
2023/10/19 17:45:29;;;;;;;1999.90;999.90;;;;;;;21.83;72.94;98841.31;10370674;28;20125;-67
2023/10/19 17:50:32;;;;;;;1999.90;999.90;;;;;;;21.70;73.68;98839.50;10370492;28;20120;-67
2023/10/19 17:55:36;;;;;;;1999.90;999.90;;;;;;;21.84;71.62;98814.47;10353688;28;20046;-67
2023/10/19 18:00:41;;;;;;;1999.90;999.90;;;;;;;21.37;73.10;98811.06;10353641;28;20400;-67
2023/10/19 18:05:47;;;;;;;1999.90;999.90;;;;;;;21.70;73.34;98794.22;10353666;28;20129;-67
2023/10/19 18:10:51;;;;;;;1999.90;999.90;;;;;;;21.49;72.07;98769.50;10370067;28;20046;-67
2023/10/19 18:15:54;;;;;;;1999.90;999.90;;;;;;;21.31;72.72;98764.78;10353333;28;20084;-67
2023/10/19 18:20:57;;;;;;;1999.90;999.90;;;;;;;21.05;70.97;98773.63;10370154;28;20103;-67
2023/10/19 18:26:00;;;;;;;1999.90;999.90;;;;;;;21.32;70.41;98779.75;10370070;28;20091;-67
2023/10/19 18:31:03;;;;;;;1999.90;999.90;;;;;;;21.27;72.25;98786.72;10369662;28;20081;-67
2023/10/19 18:36:06;;;;;;;1999.90;999.90;;;;;;;21.40;71.25;98783.19;10368938;28;20064;-67
2023/10/19 18:41:08;;;;;;;1999.90;999.90;;;;;;;21.18;73.04;98791.41;10369650;28;20050;-67
2023/10/19 18:46:11;;;;;;;1999.90;999.90;;;;;;;20.85;74.30;98794.09;10352146;28;20058;-67
2023/10/19 18:51:14;;;;;;;1999.90;999.90;;;;;;;20.55;76.46;98795.22;10351675;28;20066;-67
2023/10/19 18:56:16;;;;;;;1999.90;999.90;;;;;;;20.93;76.69;98783.22;10368657;28;20049;-67
2023/10/19 19:01:19;;;;;;;1999.90;999.90;;;;;;;21.18;71.85;98783.44;10368467;28;20046;-67
2023/10/19 19:06:21;;;;;;;1999.90;999.90;;;;;;;21.30;70.43;98767.66;10452183;23;20059;-65
2023/10/19 19:11:24;;;;;;;1999.90;999.90;;;;;;;20.89;70.53;98766.88;10540159;28;20059;-65
2023/10/19 19:16:26;;;;;;;1999.90;999.90;;;;;;;21.04;70.88;98756.00;10540015;28;20089;-65
2023/10/19 19:21:29;;;;;;;1999.90;999.90;;;;;;;21.07;69.87;98750.28;10521375;28;20489;-65
2023/10/19 19:26:33;;;;;;;1999.90;999.90;;;;;;;20.78;70.99;98754.19;10521298;28;20044;-65
2023/10/19 19:31:35;;;;;;;1999.90;999.90;;;;;;;20.53;70.05;98738.00;10539813;28;20048;-65
2023/10/19 19:36:37;;;;;;;1999.90;999.90;;;;;;;20.36;70.91;98737.56;10505324;28;20048;-65
2023/10/19 19:41:40;;;;;;;1999.90;999.90;;;;;;;20.02;71.44;98734.81;10539540;28;20084;-65
2023/10/19 19:46:42;;;;;;;1999.90;999.90;;;;;;;19.91;70.60;98743.34;10546170;28;20135;-65
2023/10/19 19:51:45;;;;;;;1999.90;999.90;;;;;;;19.83;71.57;98741.66;10546951;28;20578;-65
2023/10/19 19:56:47;;;;;;;1999.90;999.90;;;;;;;20.11;70.29;98734.63;10547442;28;20131;-65
2023/10/19 20:01:49;;;;;;;1999.90;999.90;;;;;;;20.18;72.00;98727.50;10547214;28;20048;-65
2023/10/19 20:06:52;;;;;;;1999.90;999.90;;;;;;;20.17;69.73;98728.50;10545902;28;20085;-65
2023/10/19 20:11:55;;;;;;;1999.90;999.90;;;;;;;20.02;68.33;98731.31;10547017;28;20051;-65
2023/10/19 20:16:58;;;;;;;1999.90;999.90;;;;;;;20.28;70.31;98748.38;10546616;28;20057;-65
2023/10/19 20:22:00;;;;;;;1999.90;999.90;;;;;;;19.93;70.79;98735.19;10545809;28;20485;-65
2023/10/19 20:27:02;;;;;;;1999.90;999.90;;;;;;;20.15;70.89;98707.44;10528141;28;20048;-65
2023/10/19 20:32:05;;;;;;;1999.90;999.90;;;;;;;20.28;70.06;98711.19;10545358;28;20485;-65
2023/10/19 20:37:09;;;;;;;1999.90;999.90;;;;;;;20.28;71.73;98704.00;10527885;28;20127;-65
2023/10/19 20:42:12;;;;;;;1999.90;999.90;;;;;;;20.37;71.62;98715.25;10545621;28;20059;-65
2023/10/19 20:47:14;;;;;;;1999.90;999.90;;;;;;;20.25;71.42;98699.09;10545356;28;20048;-65
2023/10/19 20:52:17;;;;;;;1999.90;999.90;;;;;;;19.97;74.63;98710.69;10527469;28;20059;-65
2023/10/19 20:57:19;;;;;;;1999.90;999.90;;;;;;;20.28;72.34;98687.25;10543724;28;20468;-64
2023/10/19 21:02:21;;;;;;;1999.90;999.90;;;;;;;20.21;73.99;98688.06;10527048;28;20055;-64
2023/10/19 21:07:25;;;;;;;1999.90;999.90;;;;;;;20.40;72.38;98680.31;10544342;28;20044;-64
2023/10/19 21:12:28;;;;;;;1999.90;999.90;;;;;;;19.54;77.67;98686.19;10543872;28;20054;-65
2023/10/19 21:17:30;;;;;;;1999.90;999.90;;;;;;;20.44;72.26;98668.25;10544218;28;20055;-65
2023/10/19 21:22:34;;;;;;;1999.90;999.90;;;;;;;20.26;72.83;98652.91;10544024;28;20075;-65
2023/10/19 21:27:37;;;;;;;1999.90;999.90;;;;;;;19.34;79.25;98641.81;10543740;28;20131;-64
2023/10/19 21:32:45;;;;;;;1999.90;999.90;;;;;;;19.76;78.81;98642.59;10525248;28;20073;-64
2023/10/19 21:37:49;;;;;;;1999.90;999.90;;;;;;;20.26;73.54;98620.19;10542794;28;20047;-65
2023/10/19 21:42:51;;;;;;;1999.90;999.90;;;;;;;20.22;73.13;98602.03;10542561;28;20377;-64
2023/10/19 21:47:53;;;;;;;1999.90;999.90;;;;;;;20.19;72.45;98612.22;10542922;28;20130;-66
2023/10/19 21:52:56;;;;;;;1999.90;999.90;;;;;;;20.03;74.80;98610.78;10542828;28;20048;-65
2023/10/19 21:57:59;;;;;;;1999.90;999.90;;;;;;;20.44;73.05;98601.78;10541934;28;20476;-65
2023/10/19 22:03:03;;;;;;;1999.90;999.90;;;;;;;19.78;77.28;98594.63;10541782;28;20052;-65
2023/10/19 22:08:14;;;;;;;1999.90;999.90;;;;;;;20.12;76.08;98612.22;10540858;28;20059;-64
2023/10/19 22:13:16;;;;;;;1999.90;999.90;;;;;;;20.56;74.07;98605.50;10541378;28;20048;-65
2023/10/19 22:18:19;;;;;;;1999.90;999.90;;;;;;;20.16;75.03;98610.81;10541172;28;20397;-65
2023/10/19 22:23:25;;;;;;;1999.90;999.90;;;;;;;20.37;75.44;98593.84;10540972;28;20511;-65
2023/10/19 22:28:27;;;;;;;1999.90;999.90;;;;;;;19.88;78.01;98584.41;10540793;28;20127;-65
2023/10/19 22:33:30;;;;;;;1999.90;999.90;;;;;;;20.03;78.59;98600.16;10541213;28;20131;-65
2023/10/19 22:38:35;;;;;;;1999.90;999.90;;;;;;;19.80;81.07;98606.69;10540429;28;20155;-65